createdAt,value
2017-11-16T06:57:56.603Z,87.00
2017-11-16T07:00:28.489Z,86.90
2017-11-16T07:03:00.378Z,87.60
2017-11-16T07:05:32.245Z,88.20
2017-11-16T07:08:04.128Z,87.70
2017-11-16T07:10:36.001Z,88.30
2017-11-16T07:13:07.908Z,87.90
2017-11-16T07:15:40.554Z,88.10
2017-11-16T07:18:12.450Z,88.00
2017-11-16T07:20:45.081Z,88.40
2017-11-16T07:23:17.297Z,88.40
2017-11-16T07:25:49.220Z,88.40
2017-11-16T07:28:21.127Z,88.30
2017-11-16T07:30:53.007Z,88.10
2017-11-16T07:33:24.919Z,88.10
2017-11-16T07:35:57.553Z,88.70
2017-11-16T07:38:29.456Z,88.40
2017-11-16T07:41:02.124Z,88.80
2017-11-16T07:43:34.029Z,88.10
2017-11-16T07:46:05.901Z,87.70
2017-11-16T07:48:37.832Z,87.80
2017-11-16T07:51:10.468Z,87.70
2017-11-16T07:53:42.394Z,87.70
2017-11-16T07:56:14.257Z,87.60
2017-11-16T07:58:46.173Z,87.50
2017-11-16T08:01:18.046Z,87.30
2017-11-16T08:03:50.738Z,87.00
2017-11-16T08:06:23.369Z,86.80
2017-11-16T08:08:55.277Z,86.80
2017-11-16T08:11:27.924Z,86.80
2017-11-16T08:13:59.846Z,86.60
2017-11-16T08:16:31.717Z,86.30
2017-11-16T08:19:03.633Z,86.90
2017-11-16T08:21:36.280Z,85.90
2017-11-16T08:24:08.174Z,85.80
2017-11-16T08:26:40.053Z,86.10
2017-11-16T08:29:11.937Z,86.10
2017-11-16T08:31:43.810Z,86.00
2017-11-16T08:34:15.724Z,85.40
2017-11-16T08:36:47.613Z,85.30
2017-11-16T08:39:19.543Z,85.60
2017-11-16T08:41:51.417Z,85.20
2017-11-16T08:44:23.357Z,85.30
2017-11-16T08:46:55.236Z,85.50
2017-11-16T08:49:27.149Z,84.80
2017-11-16T08:51:59.019Z,85.10
2017-11-16T08:54:31.689Z,84.90
2017-11-16T08:57:03.566Z,84.90
2017-11-16T08:59:36.273Z,85.30
2017-11-16T09:02:08.885Z,85.10
2017-11-16T09:04:40.773Z,85.00
2017-11-16T09:07:13.422Z,85.60
2017-11-16T09:09:45.317Z,85.60
2017-11-16T09:12:17.958Z,85.80
2017-11-16T09:14:49.876Z,85.80
2017-11-16T09:17:21.832Z,86.30
2017-11-16T09:19:53.758Z,85.70
2017-11-16T09:22:25.630Z,86.50
2017-11-16T09:24:58.309Z,85.90
2017-11-16T09:27:31.222Z,86.20
2017-11-16T09:30:03.129Z,86.20
2017-11-16T09:32:35.054Z,85.00
2017-11-16T09:35:06.966Z,84.50
2017-11-16T09:37:38.842Z,85.30
2017-11-16T09:40:11.504Z,85.80
2017-11-16T09:42:43.385Z,85.80
2017-11-16T09:45:15.326Z,85.90
2017-11-16T09:47:47.214Z,85.40
2017-11-16T09:50:19.861Z,85.60
2017-11-16T09:52:51.737Z,85.60
2017-11-16T09:55:24.389Z,85.30
2017-11-16T09:57:56.273Z,85.30
2017-11-16T10:00:28.960Z,85.20
2017-11-16T10:03:01.601Z,85.10
2017-11-16T10:05:33.514Z,85.00
2017-11-16T10:08:05.394Z,84.80
2017-11-16T10:10:37.298Z,85.20
2017-11-16T10:13:09.180Z,84.70
2017-11-16T10:15:41.837Z,83.70
2017-11-16T10:18:13.730Z,83.70
2017-11-16T10:20:45.641Z,83.30
2017-11-16T10:23:17.521Z,83.20
2017-11-16T10:25:49.460Z,82.70
2017-11-16T10:28:21.346Z,83.10
2017-11-16T10:30:53.261Z,82.60
2017-11-16T10:33:25.154Z,82.00
2017-11-16T10:35:57.061Z,81.70
2017-11-16T10:38:28.947Z,81.90
2017-11-16T10:41:00.979Z,81.30
2017-11-16T10:43:32.874Z,81.20
2017-11-16T10:46:04.778Z,81.30
2017-11-16T10:48:37.412Z,82.10
2017-11-16T10:51:09.325Z,82.10
2017-11-16T10:53:41.966Z,82.30
2017-11-16T10:56:13.880Z,82.30
2017-11-16T10:58:45.774Z,82.60
2017-11-16T11:01:17.686Z,82.80
2017-11-16T11:03:50.329Z,82.20
2017-11-16T11:06:22.234Z,82.10
2017-11-16T11:08:54.405Z,82.20
2017-11-16T11:11:26.388Z,81.80
2017-11-16T11:13:58.313Z,81.10
2017-11-16T11:16:30.198Z,81.10
2017-11-16T11:19:02.073Z,80.80
2017-11-16T11:21:33.973Z,80.40
2017-11-16T11:24:05.846Z,80.80
2017-11-16T11:26:38.518Z,80.30
2017-11-16T11:29:10.397Z,80.20
2017-11-16T11:31:43.101Z,78.60
2017-11-16T11:34:14.983Z,78.50
2017-11-16T11:36:46.897Z,79.30
2017-11-16T11:39:19.553Z,79.40
2017-11-16T11:41:51.457Z,79.40
2017-11-16T11:44:23.342Z,79.50
2017-11-16T11:46:55.257Z,79.60
2017-11-16T11:49:27.914Z,78.80
2017-11-16T11:51:59.822Z,78.80
2017-11-16T11:54:31.696Z,79.10
2017-11-16T11:57:03.933Z,78.90
2017-11-16T11:59:35.812Z,78.80
2017-11-16T12:02:07.733Z,79.00
2017-11-16T12:04:40.376Z,78.40
2017-11-16T12:07:12.323Z,78.40
2017-11-16T12:09:44.188Z,78.20
2017-11-16T12:12:16.065Z,78.30
2017-11-16T12:14:47.935Z,78.70
2017-11-16T12:17:19.865Z,78.30
2017-11-16T12:19:51.736Z,78.40
2017-11-16T12:22:24.633Z,78.00
2017-11-16T12:24:56.524Z,77.70
2017-11-16T12:27:29.214Z,77.50
2017-11-16T12:30:01.856Z,77.40
2017-11-16T12:32:33.761Z,77.20
2017-11-16T12:35:05.656Z,77.70
2017-11-16T12:37:37.564Z,77.50
2017-11-16T12:40:09.453Z,78.30
2017-11-16T12:42:41.368Z,77.60
2017-11-16T12:45:13.241Z,77.70
2017-11-16T12:47:45.930Z,77.60
2017-11-16T12:50:18.580Z,77.30
2017-11-16T12:52:50.481Z,77.30
2017-11-16T12:55:22.357Z,76.90
2017-11-16T12:57:54.311Z,76.60
2017-11-16T13:00:26.212Z,77.10
2017-11-16T13:02:58.109Z,77.60
2017-11-16T13:05:30.742Z,77.30
2017-11-16T13:08:02.645Z,77.20
2017-11-16T13:10:35.285Z,77.20
2017-11-16T13:13:07.205Z,77.20
2017-11-16T13:15:39.089Z,77.70
2017-11-16T13:18:11.004Z,78.60
2017-11-16T13:20:43.641Z,78.40
2017-11-16T13:23:15.565Z,78.40
2017-11-16T13:25:47.443Z,79.10
2017-11-16T13:28:19.350Z,78.60
2017-11-16T13:30:51.222Z,78.70
2017-11-16T13:33:23.878Z,79.00
2017-11-16T13:35:55.761Z,79.00
2017-11-16T13:38:28.433Z,78.40
2017-11-16T13:41:01.074Z,77.70
2017-11-16T13:43:32.974Z,78.10
2017-11-16T13:46:05.617Z,79.30
2017-11-16T13:48:37.511Z,79.30
2017-11-16T13:51:10.153Z,79.00
2017-11-16T13:53:42.062Z,78.90
2017-11-16T13:56:14.697Z,78.80
2017-11-16T13:58:46.581Z,78.80
2017-11-16T14:01:18.460Z,79.20
2017-11-16T14:03:51.114Z,78.80
2017-11-16T14:06:23.002Z,78.80
2017-11-16T14:08:55.888Z,78.40
2017-11-16T14:11:27.762Z,78.40
2017-11-16T14:13:59.667Z,78.00
2017-11-16T14:16:31.537Z,78.30
2017-11-16T14:19:03.446Z,77.90
2017-11-16T14:21:35.320Z,78.30
2017-11-16T14:24:07.216Z,78.30
2017-11-16T14:26:39.098Z,78.40
2017-11-16T14:29:11.777Z,78.10
2017-11-16T14:31:44.417Z,78.30
2017-11-16T14:34:16.324Z,78.30
2017-11-16T14:36:48.205Z,78.50
2017-11-16T14:39:20.098Z,78.50
2017-11-16T14:41:51.978Z,78.70
2017-11-16T14:44:23.890Z,78.80
2017-11-16T14:46:55.768Z,79.00
2017-11-16T14:49:27.665Z,78.70
2017-11-16T14:51:59.537Z,78.90
2017-11-16T14:54:32.233Z,78.80
2017-11-16T14:57:04.100Z,78.80
2017-11-16T14:59:36.305Z,78.70
2017-11-16T15:02:08.177Z,79.10
2017-11-16T15:04:40.065Z,79.50
2017-11-16T15:07:12.710Z,79.60
2017-11-16T15:09:44.621Z,79.50
2017-11-16T15:12:16.497Z,79.20
2017-11-16T15:14:48.424Z,79.60
2017-11-16T15:17:21.065Z,80.00
2017-11-16T15:19:52.958Z,80.00
2017-11-16T15:22:25.593Z,80.00
2017-11-16T15:24:57.497Z,79.90
2017-11-16T15:27:30.137Z,80.50
2017-11-16T15:30:02.058Z,80.50
2017-11-16T15:32:33.957Z,80.70
2017-11-16T15:35:05.865Z,80.60
2017-11-16T15:37:38.501Z,80.80
2017-11-16T15:40:10.517Z,80.80
2017-11-16T15:42:42.396Z,80.80
2017-11-16T15:45:14.302Z,81.10
2017-11-16T15:47:46.170Z,81.50
2017-11-16T15:50:18.843Z,80.80
2017-11-16T15:52:50.705Z,80.80
2017-11-16T15:55:22.614Z,81.10
2017-11-16T15:57:54.481Z,81.50
2017-11-16T16:00:26.381Z,81.50
2017-11-16T16:02:58.253Z,81.40
2017-11-16T16:05:30.942Z,81.50
2017-11-16T16:08:03.573Z,81.20
2017-11-16T16:10:35.482Z,81.20
2017-11-16T16:13:08.120Z,81.10
2017-11-16T16:15:40.038Z,81.10
2017-11-16T16:18:11.928Z,81.70
2017-11-16T16:20:43.816Z,81.10
2017-11-16T16:23:15.692Z,81.30
2017-11-16T16:25:48.593Z,81.70
2017-11-16T16:28:20.462Z,81.70
2017-11-16T16:30:52.352Z,81.80
2017-11-16T16:33:24.221Z,82.10
2017-11-16T16:35:56.137Z,82.20
2017-11-16T16:38:28.013Z,82.00
2017-11-16T16:40:59.926Z,81.80
2017-11-16T16:43:31.801Z,82.20
2017-11-16T16:46:04.465Z,84.40
2017-11-16T16:48:36.346Z,84.40
2017-11-16T16:51:09.007Z,85.30
2017-11-16T16:53:41.648Z,84.60
2017-11-16T16:56:13.558Z,84.20
2017-11-16T16:58:46.185Z,85.10
2017-11-16T17:01:18.096Z,85.00
2017-11-16T17:03:50.736Z,85.40
2017-11-16T17:06:22.642Z,85.30
2017-11-16T17:08:54.521Z,85.40
2017-11-16T17:11:26.436Z,85.50
2017-11-16T17:13:58.305Z,85.10
2017-11-16T17:16:30.985Z,84.60
2017-11-16T17:19:03.616Z,84.10
2017-11-16T17:21:36.285Z,84.00
2017-11-16T17:24:08.156Z,84.00
2017-11-16T17:26:40.065Z,84.30
2017-11-16T17:29:12.701Z,84.20
2017-11-16T17:31:44.605Z,84.10
2017-11-16T17:34:17.236Z,84.60
2017-11-16T17:36:49.153Z,84.60
2017-11-16T17:39:21.037Z,83.90
2017-11-16T17:41:52.945Z,84.40
2017-11-16T17:44:24.816Z,84.50
2017-11-16T17:46:57.485Z,84.20
2017-11-16T17:49:29.353Z,84.10
2017-11-16T17:52:01.268Z,84.70
2017-11-16T17:54:33.154Z,84.50
2017-11-16T17:57:05.045Z,84.50
2017-11-16T17:59:37.685Z,84.30
2017-11-16T18:02:09.594Z,84.30
2017-11-16T18:04:41.465Z,84.30
2017-11-16T18:07:13.378Z,84.40
2017-11-16T18:09:45.255Z,84.50
2017-11-16T18:12:17.922Z,85.20
2017-11-16T18:14:49.801Z,84.50
2017-11-16T18:17:22.474Z,85.00
2017-11-16T18:19:55.118Z,85.00
2017-11-16T18:22:27.037Z,84.80
2017-11-16T18:24:58.926Z,84.90
2017-11-16T18:27:30.833Z,84.70
2017-11-16T18:30:03.473Z,84.70
2017-11-16T18:32:35.391Z,84.60
2017-11-16T18:35:08.025Z,85.00
2017-11-16T18:37:39.944Z,85.00
2017-11-16T18:40:11.825Z,85.10
2017-11-16T18:42:43.732Z,84.80
2017-11-16T18:45:16.377Z,84.90
2017-11-16T18:47:49.054Z,85.70
2017-11-16T18:50:20.921Z,86.00
2017-11-16T18:52:52.829Z,85.40
2017-11-16T18:55:24.696Z,85.50
2017-11-16T18:57:56.621Z,85.50
2017-11-16T19:00:28.497Z,85.40
2017-11-16T19:03:01.169Z,85.90
2017-11-16T19:05:33.041Z,85.90
2017-11-16T19:08:05.715Z,85.70
2017-11-16T19:10:38.357Z,85.40
2017-11-16T19:13:10.257Z,85.30
2017-11-16T19:15:42.895Z,85.70
2017-11-16T19:18:14.810Z,85.70
2017-11-16T19:20:46.694Z,85.90
2017-11-16T19:23:18.598Z,85.30
2017-11-16T19:25:50.469Z,86.00
2017-11-16T19:28:23.133Z,85.90
2017-11-16T19:30:55.000Z,85.80
2017-11-16T19:33:26.886Z,86.20
2017-11-16T19:35:58.760Z,85.60
2017-11-16T19:38:30.645Z,85.60
2017-11-16T19:41:02.525Z,85.90
2017-11-16T19:43:34.430Z,86.10
2017-11-16T19:46:06.297Z,86.00
2017-11-16T19:48:38.201Z,85.80
2017-11-16T19:51:10.080Z,86.60
2017-11-16T19:53:41.982Z,86.30
2017-11-16T19:56:13.852Z,86.60
2017-11-16T19:58:45.744Z,86.70
2017-11-16T20:01:17.616Z,86.50
2017-11-16T20:03:49.517Z,86.40
2017-11-16T20:06:21.396Z,86.70
2017-11-16T20:08:53.633Z,86.60
2017-11-16T20:11:25.519Z,86.40
2017-11-16T20:13:57.426Z,87.10
2017-11-16T20:16:29.297Z,88.50
2017-11-16T20:19:01.960Z,90.40
2017-11-16T20:21:33.832Z,90.40
2017-11-16T20:24:06.517Z,90.50
2017-11-16T20:26:39.157Z,91.20
2017-11-16T20:29:11.067Z,91.10
2017-11-16T20:31:43.714Z,91.30
2017-11-16T20:34:15.625Z,91.30
2017-11-16T20:36:47.490Z,91.50
2017-11-16T20:39:19.412Z,91.30
